Time;durP1;ratioP1;P1;durP2;ratioP2;P2;SDS_P1;SDS_P2;PMS_P1;PMS_P2;Temp;Humidity;BMP_temperature;BMP_pressure;BME280_temperature;BME280_humidity;BME280_pressure;Samples;Min_cycle;Max_cycle;Signal;HPM_P1;HPM_P2
2022/03/28 00:01:18;;;;;;;24.20;5.97;;;5.30;95.00;;;;;;5038046;28;20026;-78
2022/03/28 00:03:44;;;;;;;22.75;3.95;;;5.10;94.90;;;;;;5053009;28;20017;-79
2022/03/28 00:06:10;;;;;;;10.90;4.30;;;4.90;94.80;;;;;;5048626;28;20037;-78
2022/03/28 00:08:36;;;;;;;30.75;3.85;;;5.00;95.00;;;;;;5057550;28;20077;-78
2022/03/28 00:11:02;;;;;;;48.75;3.78;;;4.80;95.00;;;;;;5053962;28;20029;-78
2022/03/28 00:13:28;;;;;;;60.38;4.35;;;4.90;95.20;;;;;;5045501;28;20397;-78
2022/03/28 00:15:53;;;;;;;69.90;4.13;;;4.80;95.10;;;;;;5048077;28;20036;-78
2022/03/28 00:18:19;;;;;;;44.53;3.35;;;4.80;95.20;;;;;;5052409;28;20029;-78
2022/03/28 00:20:47;;;;;;;25.90;3.35;;;4.80;95.30;;;;;;5042868;28;20107;-78
2022/03/28 00:23:13;;;;;;;18.13;3.33;;;4.90;95.40;;;;;;5055396;28;20106;-78
2022/03/28 00:25:40;;;;;;;19.90;3.85;;;4.90;95.40;;;;;;5026957;28;20037;-78
2022/03/28 00:28:06;;;;;;;7.22;3.38;;;5.00;95.50;;;;;;5048084;28;20452;-78
2022/03/28 00:30:32;;;;;;;8.48;4.10;;;5.10;95.50;;;;;;5048742;28;20550;-78
2022/03/28 00:32:59;;;;;;;8.35;4.82;;;4.90;95.30;;;;;;5047985;28;20029;-79
2022/03/28 00:35:25;;;;;;;8.90;4.93;;;4.90;95.40;;;;;;5044217;28;20025;-78
2022/03/28 00:37:51;;;;;;;10.52;4.95;;;4.80;95.30;;;;;;5049560;28;20041;-78
2022/03/28 00:40:17;;;;;;;10.60;5.15;;;4.70;95.20;;;;;;5052265;28;20029;-78
2022/03/28 00:42:43;;;;;;;11.65;5.82;;;4.80;95.30;;;;;;5057076;28;20467;-78
2022/03/28 00:45:09;;;;;;;11.35;5.38;;;4.80;95.30;;;;;;5045851;28;20020;-79
2022/03/28 00:47:35;;;;;;;10.35;5.75;;;4.90;95.40;;;;;;5052439;28;20033;-78
2022/03/28 00:50:00;;;;;;;11.82;6.13;;;4.90;95.40;;;;;;5046049;28;20039;-77
2022/03/28 00:52:26;;;;;;;10.70;5.85;;;5.00;95.40;;;;;;5054302;28;20032;-77
2022/03/28 00:54:52;;;;;;;10.75;5.90;;;5.00;95.30;;;;;;5050592;28;20033;-77
2022/03/28 00:57:18;;;;;;;11.73;5.93;;;4.90;95.20;;;;;;5046905;28;20017;-77
2022/03/28 00:59:44;;;;;;;17.92;6.93;;;5.00;95.20;;;;;;5050757;28;20094;-77
2022/03/28 01:02:10;;;;;;;10.73;6.10;;;4.90;95.00;;;;;;5047880;28;20036;-77
2022/03/28 01:04:37;;;;;;;10.73;5.60;;;4.80;94.90;;;;;;5046278;28;20029;-77
2022/03/28 01:07:06;;;;;;;11.27;5.50;;;4.90;95.10;;;;;;5046848;28;20476;-77
2022/03/28 01:09:33;;;;;;;10.80;6.03;;;4.90;95.00;;;;;;5042399;28;20041;-77
2022/03/28 01:12:00;;;;;;;11.07;5.60;;;4.90;94.90;;;;;;5051645;28;20020;-78
2022/03/28 01:14:27;;;;;;;10.93;6.13;;;4.90;94.90;;;;;;5049063;28;20029;-78
2022/03/28 01:19:37;;;;;;;9.43;5.45;;;5.00;94.90;;;;;;5042976;28;20087;-77
2022/03/28 01:22:03;;;;;;;10.35;5.68;;;4.90;94.70;;;;;;5045666;28;20794;-78
2022/03/28 01:24:30;;;;;;;10.73;5.50;;;4.90;94.80;;;;;;5046805;28;20039;-78
2022/03/28 01:26:57;;;;;;;10.63;5.38;;;4.90;94.80;;;;;;5053500;28;20059;-78
2022/03/28 01:29:22;;;;;;;10.32;5.30;;;4.90;94.70;;;;;;5050558;28;20330;-77
2022/03/28 01:31:48;;;;;;;9.50;5.50;;;5.00;94.70;;;;;;5045789;28;20036;-77
2022/03/28 01:34:17;;;;;;;9.45;5.18;;;4.90;94.60;;;;;;5048649;28;20366;-77
2022/03/28 01:36:45;;;;;;;9.93;5.80;;;4.90;94.50;;;;;;5044467;28;20413;-78
2022/03/28 01:39:11;;;;;;;13.48;6.00;;;5.00;94.60;;;;;;5047811;28;20175;-77
2022/03/28 01:41:37;;;;;;;11.43;6.07;;;5.00;94.50;;;;;;5042547;28;20108;-77
2022/03/28 01:44:03;;;;;;;10.43;6.15;;;4.90;94.40;;;;;;5045005;28;20477;-77
2022/03/28 01:46:28;;;;;;;19.75;5.53;;;4.80;94.50;;;;;;5045849;28;20028;-77
2022/03/28 01:48:54;;;;;;;20.90;5.25;;;4.70;94.40;;;;;;5049949;28;20492;-77
2022/03/28 01:51:19;;;;;;;12.27;5.97;;;4.70;94.60;;;;;;5045924;28;20035;-77
2022/03/28 01:53:45;;;;;;;10.18;5.82;;;4.70;94.60;;;;;;5045197;28;20020;-77
2022/03/28 01:56:10;;;;;;;31.38;5.25;;;4.80;94.70;;;;;;5038905;28;20420;-78
2022/03/28 01:58:36;;;;;;;14.18;4.57;;;4.60;94.60;;;;;;5042624;28;20033;-78
2022/03/28 02:01:01;;;;;;;11.40;4.78;;;4.50;94.70;;;;;;5040066;28;20031;-78
2022/03/28 02:03:27;;;;;;;10.20;3.72;;;4.50;94.80;;;;;;5049292;28;20039;-78
2022/03/28 02:05:52;;;;;;;7.82;4.05;;;4.40;94.70;;;;;;5040661;28;20043;-78
2022/03/28 02:08:18;;;;;;;7.72;3.13;;;4.40;94.90;;;;;;5037844;28;20029;-78
2022/03/28 02:10:43;;;;;;;10.50;3.92;;;4.40;94.80;;;;;;5041837;28;20376;-78
2022/03/28 02:13:09;;;;;;;9.70;3.67;;;4.40;94.90;;;;;;5048835;28;20132;-78
2022/03/28 02:15:34;;;;;;;9.65;4.10;;;4.30;94.80;;;;;;5043825;28;20478;-78
2022/03/28 02:18:00;;;;;;;8.18;3.67;;;4.50;95.10;;;;;;5046041;28;20025;-78
2022/03/28 02:20:25;;;;;;;10.70;3.92;;;4.50;95.00;;;;;;5042350;28;20452;-78
2022/03/28 02:22:51;;;;;;;11.82;3.85;;;4.30;94.80;;;;;;5041495;28;20044;-78
2022/03/28 02:25:17;;;;;;;8.40;3.75;;;4.40;95.00;;;;;;5041659;28;20389;-77
2022/03/28 02:27:43;;;;;;;11.88;3.85;;;4.40;95.00;;;;;;5045666;28;20395;-77
2022/03/28 02:30:11;;;;;;;7.78;3.88;;;4.40;95.00;;;;;;5043831;28;20035;-78
2022/03/28 02:32:37;;;;;;;9.38;3.85;;;4.30;95.10;;;;;;5041908;28;20116;-78
2022/03/28 02:35:05;;;;;;;9.30;3.90;;;4.40;95.20;;;;;;5044590;28;20104;-78
2022/03/28 02:37:30;;;;;;;9.38;4.25;;;4.40;95.20;;;;;;5045264;28;20052;-78
2022/03/28 02:39:56;;;;;;;13.98;4.95;;;4.40;95.20;;;;;;5050968;28;20078;-78
2022/03/28 02:42:22;;;;;;;15.52;4.93;;;4.40;95.30;;;;;;5051753;28;20033;-78
2022/03/28 02:44:49;;;;;;;21.48;5.38;;;4.40;95.20;;;;;;5043166;28;20034;-78
2022/03/28 02:47:18;;;;;;;19.50;5.72;;;4.40;95.30;;;;;;5041727;28;20481;-78
2022/03/28 02:49:43;;;;;;;39.28;5.50;;;4.40;95.30;;;;;;5043256;28;20029;-78
2022/03/28 02:52:09;;;;;;;17.20;5.22;;;4.40;95.40;;;;;;5043527;28;20479;-78
2022/03/28 02:54:34;;;;;;;20.98;5.25;;;4.60;95.50;;;;;;5048482;28;20112;-78
2022/03/28 02:57:00;;;;;;;15.05;4.97;;;4.50;95.40;;;;;;5043702;28;20028;-78
2022/03/28 02:59:25;;;;;;;24.77;5.82;;;4.60;95.40;;;;;;5061361;28;20163;-78
2022/03/28 03:01:51;;;;;;;31.33;6.20;;;4.60;95.30;;;;;;5047640;28;20024;-78
2022/03/28 03:04:17;;;;;;;19.38;5.82;;;4.60;95.40;;;;;;5051596;28;20025;-78
2022/03/28 03:06:42;;;;;;;24.20;5.90;;;4.60;95.40;;;;;;5048706;28;20032;-78
2022/03/28 03:09:08;;;;;;;28.80;7.03;;;4.50;95.30;;;;;;5049456;28;20029;-78
2022/03/28 03:11:33;;;;;;;25.15;6.43;;;4.50;95.40;;;;;;5049209;28;20017;-78
2022/03/28 03:13:59;;;;;;;70.13;6.75;;;4.50;95.40;;;;;;5052242;28;20037;-78
2022/03/28 03:16:24;;;;;;;45.55;6.07;;;4.50;95.50;;;;;;5050164;28;20032;-77
2022/03/28 03:18:50;;;;;;;29.58;6.30;;;4.40;95.40;;;;;;5050168;28;20017;-77
2022/03/28 03:21:15;;;;;;;20.27;5.45;;;4.30;95.50;;;;;;5051663;28;20031;-77
2022/03/28 03:23:41;;;;;;;12.82;5.57;;;4.40;95.60;;;;;;5049018;28;20033;-77
2022/03/28 03:26:07;;;;;;;15.43;5.30;;;4.30;95.60;;;;;;5050009;28;20063;-77
2022/03/28 03:28:32;;;;;;;16.15;4.43;;;4.20;95.50;;;;;;5049650;28;20083;-77
2022/03/28 03:30:58;;;;;;;11.60;4.43;;;4.20;95.50;;;;;;5047624;28;20029;-77
2022/03/28 03:33:23;;;;;;;14.07;4.50;;;4.30;95.70;;;;;;5062743;28;20089;-77
2022/03/28 03:35:49;;;;;;;13.32;4.07;;;4.30;95.70;;;;;;5048408;28;20151;-78
2022/03/28 03:38:14;;;;;;;14.32;4.38;;;4.40;95.70;;;;;;5077389;28;20081;-78
2022/03/28 03:40:40;;;;;;;17.42;4.68;;;4.30;95.60;;;;;;5070227;28;22658;-78
2022/03/28 03:43:06;;;;;;;25.42;5.70;;;4.40;95.70;;;;;;5060358;28;20492;-78
2022/03/28 03:45:32;;;;;;;14.82;4.93;;;4.40;95.70;;;;;;5050246;28;20035;-77
2022/03/28 03:47:57;;;;;;;18.75;5.72;;;4.50;95.70;;;;;;5069185;28;20499;-77
2022/03/28 03:50:23;;;;;;;15.15;4.60;;;4.50;95.60;;;;;;5064801;28;20035;-77
2022/03/28 03:52:50;;;;;;;13.05;4.13;;;4.30;95.30;;;;;;5074744;28;20043;-77
2022/03/28 03:55:16;;;;;;;21.75;4.10;;;4.20;95.50;;;;;;5070182;28;20037;-77
2022/03/28 03:57:42;;;;;;;15.63;4.30;;;4.20;95.60;;;;;;5056796;28;20491;-77
2022/03/28 04:00:08;;;;;;;13.25;3.03;;;4.20;95.60;;;;;;5050024;28;20021;-77
2022/03/28 04:02:34;;;;;;;15.63;3.50;;;4.10;95.60;;;;;;5051513;28;20025;-77
2022/03/28 04:04:59;;;;;;;17.15;3.53;;;4.10;95.70;;;;;;5050831;28;20042;-78
2022/03/28 04:07:25;;;;;;;12.27;3.40;;;4.10;95.70;;;;;;5051329;28;20036;-77
2022/03/28 04:09:51;;;;;;;11.90;3.05;;;4.20;95.80;;;;;;5066857;28;20047;-78
2022/03/28 04:12:17;;;;;;;8.27;2.85;;;4.10;95.70;;;;;;5047857;28;20020;-78
2022/03/28 04:14:42;;;;;;;8.45;2.67;;;4.20;95.80;;;;;;5048875;28;20055;-78
2022/03/28 04:17:08;;;;;;;10.57;3.05;;;4.10;95.80;;;;;;5064583;28;20040;-78
2022/03/28 04:19:34;;;;;;;10.48;3.58;;;4.20;95.70;;;;;;5054654;28;20025;-78
2022/03/28 04:21:59;;;;;;;6.25;1.98;;;4.10;95.60;;;;;;5069168;28;20106;-78
2022/03/28 04:24:25;;;;;;;7.80;2.85;;;4.20;95.80;;;;;;5058685;28;20024;-78
2022/03/28 04:26:50;;;;;;;7.03;1.92;;;4.20;95.80;;;;;;5045035;28;20082;-78
2022/03/28 04:29:16;;;;;;;9.38;2.70;;;4.10;95.60;;;;;;5070278;28;20089;-78
2022/03/28 04:31:42;;;;;;;9.27;3.17;;;4.10;95.60;;;;;;5071394;28;20089;-77
2022/03/28 04:34:08;;;;;;;7.05;2.60;;;4.10;95.60;;;;;;5060367;28;20450;-77
2022/03/28 04:36:33;;;;;;;9.75;3.10;;;4.10;95.60;;;;;;5055491;28;20044;-77
2022/03/28 04:39:00;;;;;;;6.47;2.60;;;4.20;95.70;;;;;;5054036;28;20391;-77
2022/03/28 04:41:25;;;;;;;8.50;2.72;;;4.10;95.60;;;;;;5072649;28;20020;-77
2022/03/28 04:43:52;;;;;;;7.05;2.38;;;4.10;95.60;;;;;;5066717;28;20052;-77
2022/03/28 04:46:17;;;;;;;7.90;2.70;;;4.00;95.40;;;;;;5044090;28;20029;-78
2022/03/28 04:48:43;;;;;;;8.07;3.22;;;4.10;95.60;;;;;;5045373;28;20029;-77
2022/03/28 04:51:09;;;;;;;8.35;3.08;;;4.10;95.70;;;;;;5036879;28;20634;-77
2022/03/28 04:53:35;;;;;;;10.35;2.92;;;4.10;95.70;;;;;;5067713;28;20054;-77
2022/03/28 04:56:01;;;;;;;9.27;3.30;;;4.20;95.70;;;;;;5068868;28;20036;-77
2022/03/28 04:58:26;;;;;;;7.80;2.58;;;4.10;95.60;;;;;;5055182;28;20024;-77
2022/03/28 05:00:52;;;;;;;7.53;2.67;;;4.20;95.70;;;;;;5062979;28;20028;-80
2022/03/28 05:03:18;;;;;;;9.63;3.08;;;4.20;95.60;;;;;;5054275;28;22397;-78
2022/03/28 05:05:43;;;;;;;7.72;2.83;;;4.20;95.60;;;;;;5051624;28;20036;-78
2022/03/28 05:08:10;;;;;;;9.75;3.58;;;4.10;95.50;;;;;;5074139;28;20039;-78
2022/03/28 05:10:35;;;;;;;7.72;3.00;;;4.10;95.60;;;;;;5056773;28;20032;-78
2022/03/28 05:13:01;;;;;;;7.45;2.38;;;4.20;95.60;;;;;;5047471;28;20031;-78
2022/03/28 05:15:27;;;;;;;6.15;2.17;;;4.20;95.50;;;;;;5046916;28;20428;-78
2022/03/28 05:17:53;;;;;;;7.38;2.97;;;4.20;95.60;;;;;;5034419;28;20025;-78
2022/03/28 05:20:19;;;;;;;5.53;2.25;;;4.20;95.50;;;;;;5068016;28;20127;-78
2022/03/28 05:22:45;;;;;;;6.80;2.30;;;4.20;95.50;;;;;;5043336;28;20036;-78
2022/03/28 05:25:10;;;;;;;8.02;2.92;;;4.10;95.30;;;;;;5059880;28;20036;-78
2022/03/28 05:27:46;;;;;;;8.02;2.60;;;4.20;95.50;;;;;;5069268;28;20545;-79
2022/03/28 05:30:13;;;;;;;7.68;3.20;;;4.30;95.50;;;;;;5053430;28;20060;-79
2022/03/28 05:32:38;;;;;;;9.13;3.50;;;4.20;95.30;;;;;;5050255;28;20476;-79
2022/03/28 05:35:07;;;;;;;11.60;3.03;;;4.30;95.30;;;;;;5060630;28;20205;-78
2022/03/28 05:37:34;;;;;;;8.07;3.72;;;4.30;95.20;;;;;;5050124;28;20044;-78
2022/03/28 05:40:00;;;;;;;9.07;3.60;;;4.30;95.30;;;;;;5072351;28;20032;-78
2022/03/28 05:42:25;;;;;;;8.85;3.53;;;4.20;95.20;;;;;;5058278;28;20027;-78
2022/03/28 05:44:51;;;;;;;8.48;3.50;;;4.30;95.40;;;;;;5050716;28;20032;-78
2022/03/28 05:47:16;;;;;;;10.30;4.03;;;4.30;95.30;;;;;;5040423;28;20056;-78
2022/03/28 05:49:42;;;;;;;7.78;3.70;;;4.40;95.40;;;;;;5049888;28;20047;-78
2022/03/28 05:52:08;;;;;;;11.27;4.28;;;4.40;95.40;;;;;;5067036;28;20430;-78
2022/03/28 05:54:34;;;;;;;9.98;4.47;;;4.40;95.30;;;;;;5046998;28;20403;-78
2022/03/28 05:57:00;;;;;;;11.43;4.50;;;4.40;95.30;;;;;;5090263;28;20032;-78
2022/03/28 05:59:25;;;;;;;12.50;4.82;;;4.40;95.30;;;;;;5048588;28;20023;-78
2022/03/28 06:01:51;;;;;;;15.35;5.22;;;4.40;95.20;;;;;;5048305;28;20361;-78
2022/03/28 06:04:17;;;;;;;10.95;4.70;;;4.60;95.50;;;;;;5073043;28;20027;-78
2022/03/28 06:06:43;;;;;;;12.38;5.20;;;4.60;95.40;;;;;;5070728;28;20020;-78
2022/03/28 06:09:09;;;;;;;13.55;5.97;;;4.40;95.10;;;;;;5075117;28;20391;-78
2022/03/28 06:11:35;;;;;;;10.88;5.25;;;4.40;95.20;;;;;;5090340;28;20024;-78
2022/03/28 06:14:01;;;;;;;13.93;6.25;;;4.40;95.00;;;;;;5054939;28;20025;-78
2022/03/28 06:16:26;;;;;;;11.82;5.13;;;4.60;95.20;;;;;;5062231;28;20122;-78
2022/03/28 06:18:52;;;;;;;13.45;5.60;;;4.60;95.10;;;;;;5070941;28;20040;-78
2022/03/28 06:21:20;;;;;;;16.52;6.60;;;4.70;95.20;;;;;;5050106;28;20031;-78
2022/03/28 06:23:45;;;;;;;15.43;6.32;;;4.60;95.00;;;;;;5059018;28;20100;-78
2022/03/28 06:26:11;;;;;;;15.25;6.28;;;4.80;95.10;;;;;;5064381;28;20436;-78
2022/03/28 06:28:39;;;;;;;20.20;7.88;;;4.70;94.80;;;;;;5047587;28;20037;-78
2022/03/28 06:31:05;;;;;;;16.45;6.97;;;4.70;94.70;;;;;;5053731;28;20044;-78
2022/03/28 06:33:31;;;;;;;15.82;7.32;;;4.80;94.80;;;;;;5054571;28;20025;-77
2022/03/28 06:35:56;;;;;;;18.00;7.50;;;4.80;94.90;;;;;;5049140;28;20419;-78
2022/03/28 06:38:22;;;;;;;15.60;6.47;;;4.70;94.60;;;;;;5069122;28;20463;-78
2022/03/28 06:40:48;;;;;;;13.30;6.18;;;4.70;94.80;;;;;;5054943;28;20517;-78
2022/03/28 06:43:14;;;;;;;14.68;5.93;;;4.60;94.60;;;;;;5062229;28;20092;-78
2022/03/28 06:45:39;;;;;;;18.52;6.32;;;4.70;94.80;;;;;;5045629;28;20055;-78
2022/03/28 06:48:05;;;;;;;14.02;6.65;;;4.70;94.70;;;;;;5046338;28;20074;-77
2022/03/28 06:50:31;;;;;;;12.30;5.95;;;4.80;94.70;;;;;;5071844;28;20032;-77
2022/03/28 06:52:57;;;;;;;14.25;6.82;;;4.80;94.70;;;;;;5056055;28;20384;-77
2022/03/28 06:55:23;;;;;;;15.63;5.75;;;4.80;94.50;;;;;;5072503;28;20021;-78
2022/03/28 06:57:48;;;;;;;13.95;6.65;;;4.90;94.60;;;;;;5071975;28;20022;-77
2022/03/28 07:00:14;;;;;;;14.82;6.07;;;4.90;94.50;;;;;;5074271;28;20044;-77
2022/03/28 07:02:40;;;;;;;13.95;6.53;;;4.90;94.40;;;;;;5050484;28;20462;-77
2022/03/28 07:05:07;;;;;;;13.93;6.97;;;4.80;94.30;;;;;;5049519;28;20039;-78
2022/03/28 07:07:47;;;;;;;13.43;6.35;;;4.90;94.30;;;;;;5049131;28;20070;-78
2022/03/28 07:10:14;;;;;;;16.08;6.15;;;5.00;94.40;;;;;;5069016;28;20094;-78
2022/03/28 07:12:40;;;;;;;14.73;6.70;;;5.00;94.30;;;;;;5061516;28;20479;-78
2022/03/28 07:15:07;;;;;;;14.15;6.30;;;5.10;94.30;;;;;;5055053;28;20059;-78
2022/03/28 07:17:55;;;;;;;14.23;5.97;;;5.00;94.20;;;;;;5056712;28;20052;-78
2022/03/28 07:20:22;;;;;;;12.50;4.65;;;5.10;94.20;;;;;;5093113;28;20020;-78
2022/03/28 07:22:48;;;;;;;9.48;4.25;;;5.00;93.80;;;;;;5069213;28;20029;-78
2022/03/28 07:25:14;;;;;;;10.27;3.80;;;4.90;93.70;;;;;;5052075;28;20119;-78
2022/03/28 07:27:41;;;;;;;8.68;4.13;;;4.90;94.00;;;;;;5059118;28;20031;-78
2022/03/28 07:30:08;;;;;;;10.25;4.38;;;5.00;94.20;;;;;;5076041;28;20025;-78
2022/03/28 07:32:34;;;;;;;9.88;4.97;;;5.10;94.10;;;;;;5072402;28;20563;-77
2022/03/28 07:35:00;;;;;;;9.32;4.32;;;5.10;94.00;;;;;;5072994;28;20029;-77
2022/03/28 07:37:26;;;;;;;11.50;4.35;;;5.10;94.00;;;;;;5063110;28;20391;-77
2022/03/28 07:39:52;;;;;;;10.10;4.25;;;5.20;93.90;;;;;;5081785;28;20028;-77
2022/03/28 07:42:17;;;;;;;10.00;4.40;;;5.10;93.70;;;;;;5077632;28;20051;-77
2022/03/28 07:44:43;;;;;;;7.60;4.25;;;5.10;93.60;;;;;;5055035;28;20032;-78
2022/03/28 07:47:11;;;;;;;9.13;4.10;;;5.30;94.00;;;;;;5052047;28;20032;-78
2022/03/28 07:49:38;;;;;;;8.52;3.78;;;5.50;93.90;;;;;;5087285;28;20025;-78
2022/03/28 07:52:04;;;;;;;7.53;3.38;;;5.50;93.70;;;;;;5054432;28;20041;-78
2022/03/28 07:54:32;;;;;;;8.40;3.05;;;5.50;93.50;;;;;;5052065;28;20582;-78
2022/03/28 07:56:58;;;;;;;6.25;2.50;;;5.40;93.50;;;;;;5060594;28;20111;-78
2022/03/28 07:59:23;;;;;;;4.63;2.03;;;5.40;93.30;;;;;;5071330;28;20483;-78
2022/03/28 08:01:50;;;;;;;5.72;2.00;;;5.50;93.40;;;;;;5079672;28;20415;-78
2022/03/28 08:04:15;;;;;;;4.38;2.10;;;5.70;93.50;;;;;;5092650;28;20020;-78
2022/03/28 08:06:41;;;;;;;2.85;1.70;;;5.60;92.80;;;;;;5072506;28;20035;-78
2022/03/28 08:09:06;;;;;;;3.50;1.48;;;5.60;92.40;;;;;;5071055;28;20028;-78
2022/03/28 08:11:32;;;;;;;3.15;1.60;;;5.70;92.60;;;;;;5052410;28;20068;-78
2022/03/28 08:13:57;;;;;;;1.58;0.98;;;5.90;92.50;;;;;;5072485;28;20365;-78
2022/03/28 08:16:23;;;;;;;1.77;1.00;;;5.90;91.30;;;;;;5071850;28;20097;-78
2022/03/28 08:18:48;;;;;;;2.13;1.05;;;6.10;91.20;;;;;;5059084;28;20467;-78
2022/03/28 08:21:14;;;;;;;1.52;0.90;;;6.20;90.50;;;;;;5061565;28;20122;-78
2022/03/28 08:23:39;;;;;;;2.83;1.05;;;6.20;90.00;;;;;;5054274;28;20020;-78
2022/03/28 08:26:05;;;;;;;2.72;1.05;;;6.30;90.00;;;;;;5075989;28;20024;-78
2022/03/28 08:28:31;;;;;;;1.48;1.00;;;6.60;90.10;;;;;;5092840;28;20020;-78
2022/03/28 08:30:57;;;;;;;2.10;1.10;;;6.60;89.60;;;;;;5092330;28;20020;-78
2022/03/28 08:33:22;;;;;;;1.40;0.85;;;6.70;88.90;;;;;;5061725;28;20028;-78
2022/03/28 08:35:48;;;;;;;2.47;1.17;;;6.50;88.40;;;;;;5054071;28;20480;-78
2022/03/28 08:38:13;;;;;;;1.45;1.00;;;6.30;88.80;;;;;;5054949;28;20078;-78
2022/03/28 08:40:42;;;;;;;1.63;1.02;;;6.50;89.30;;;;;;5056421;28;20028;-78
2022/03/28 08:43:08;;;;;;;1.77;1.27;;;6.50;89.20;;;;;;5078066;28;20035;-78
2022/03/28 08:45:38;;;;;;;2.25;1.20;;;6.50;88.80;;;;;;5074467;28;20024;-78
2022/03/28 08:48:05;;;;;;;1.83;1.15;;;6.50;88.00;;;;;;5083920;28;20028;-78
2022/03/28 08:50:32;;;;;;;1.63;1.10;;;6.60;87.90;;;;;;5087894;28;20464;-78
2022/03/28 08:52:58;;;;;;;1.90;1.27;;;6.80;87.90;;;;;;5077908;28;20417;-78
2022/03/28 08:55:24;;;;;;;2.33;1.25;;;7.00;87.50;;;;;;5072817;28;20115;-78
2022/03/28 08:57:49;;;;;;;2.00;1.33;;;6.60;86.30;;;;;;5066436;28;20503;-78
2022/03/28 09:00:16;;;;;;;1.98;1.20;;;6.70;87.40;;;;;;5069355;28;20024;-78
2022/03/28 09:02:46;;;;;;;2.25;1.33;;;6.60;87.10;;;;;;5054170;28;20070;-78
2022/03/28 09:05:14;;;;;;;2.85;1.60;;;6.80;87.80;;;;;;5053193;28;20028;-78
2022/03/28 09:07:40;;;;;;;2.50;1.40;;;6.80;87.50;;;;;;5079616;28;20024;-78
2022/03/28 09:10:17;;;;;;;3.05;1.60;;;6.70;87.40;;;;;;5053507;28;20031;-78
2022/03/28 09:13:01;;;;;;;2.88;1.70;;;6.80;87.50;;;;;;5072643;28;20081;-78
2022/03/28 09:15:53;;;;;;;3.03;1.73;;;6.40;88.00;;;;;;5059816;28;20547;-78
2022/03/28 09:18:30;;;;;;;4.28;1.65;;;6.10;88.70;;;;;;5058601;28;20028;-78
2022/03/28 09:21:02;;;;;;;3.00;1.70;;;6.20;89.90;;;;;;5072288;28;20524;-78
2022/03/28 09:23:54;;;;;;;2.42;1.50;;;6.60;89.70;;;;;;5074260;28;20168;-79
2022/03/28 09:26:25;;;;;;;3.08;1.50;;;6.80;88.40;;;;;;5059452;28;20059;-79
2022/03/28 09:28:53;;;;;;;3.25;1.65;;;6.80;87.20;;;;;;5053170;28;20037;-79
2022/03/28 09:31:34;;;;;;;2.38;1.70;;;6.80;86.60;;;;;;5071428;28;20376;-78
2022/03/28 09:34:01;;;;;;;3.00;1.60;;;6.80;87.10;;;;;;5072012;28;20029;-78
2022/03/28 09:36:36;;;;;;;8.90;1.88;;;6.70;86.70;;;;;;5070125;28;20052;-78
2022/03/28 09:39:04;;;;;;;1.75;1.35;;;6.80;87.20;;;;;;5077829;28;20020;-79
2022/03/28 09:41:30;;;;;;;2.95;1.73;;;6.60;86.20;;;;;;5056595;28;20033;-79
2022/03/28 09:43:56;;;;;;;2.00;1.27;;;6.80;86.50;;;;;;5058851;28;20487;-79
2022/03/28 09:46:29;;;;;;;2.60;1.38;;;6.80;85.60;;;;;;5055862;28;20063;-79
2022/03/28 09:48:58;;;;;;;1.55;1.27;;;7.10;86.10;;;;;;5062744;28;20381;-79
2022/03/28 09:51:27;;;;;;;2.47;1.33;;;7.10;84.20;;;;;;5067689;28;20028;-79
2022/03/28 09:53:53;;;;;;;2.58;1.60;;;7.60;84.60;;;;;;5067095;28;20048;-79
2022/03/28 09:56:18;;;;;;;2.22;1.55;;;7.80;84.20;;;;;;5047917;28;20044;-79
2022/03/28 09:58:59;;;;;;;1.95;1.23;;;7.80;83.50;;;;;;5072909;28;20020;-79
2022/03/28 10:01:39;;;;;;;2.13;1.42;;;7.70;82.60;;;;;;5059233;28;20031;-79
2022/03/28 10:04:10;;;;;;;2.58;1.40;;;7.80;83.40;;;;;;5072113;28;20457;-79
2022/03/28 10:06:38;;;;;;;2.58;1.50;;;7.90;82.70;;;;;;5058879;28;20032;-79
2022/03/28 10:09:08;;;;;;;2.10;1.38;;;8.00;82.80;;;;;;5064620;28;20057;-79
2022/03/28 10:11:36;;;;;;;3.35;1.70;;;8.20;82.30;;;;;;5066798;28;20499;-79
2022/03/28 10:14:02;;;;;;;2.13;1.33;;;8.30;80.30;;;;;;5043631;28;20061;-79
2022/03/28 10:16:28;;;;;;;1.70;1.30;;;8.50;80.50;;;;;;5067433;28;20032;-79
2022/03/28 10:18:53;;;;;;;1.67;1.50;;;8.00;80.70;;;;;;5049125;28;20028;-79
2022/03/28 10:21:33;;;;;;;1.88;1.30;;;8.20;80.60;;;;;;5069585;28;20033;-79
2022/03/28 10:24:11;;;;;;;1.55;1.35;;;8.50;80.10;;;;;;5052590;28;20155;-79
2022/03/28 10:26:39;;;;;;;1.75;1.33;;;8.70;79.70;;;;;;5047777;28;20033;-79
2022/03/28 10:29:21;;;;;;;1.67;1.30;;;9.00;78.20;;;;;;5063985;28;20036;-79
2022/03/28 10:32:00;;;;;;;1.65;1.33;;;9.00;77.90;;;;;;5054736;28;20357;-79
2022/03/28 10:34:52;;;;;;;2.28;1.23;;;8.80;79.00;;;;;;5050356;28;20059;-79
2022/03/28 10:37:34;;;;;;;3.45;1.50;;;9.00;79.20;;;;;;5037875;28;20059;-80
2022/03/28 10:40:21;;;;;;;2.33;1.27;;;8.60;79.00;;;;;;5040758;28;20408;-79
2022/03/28 10:43:11;;;;;;;2.75;1.40;;;8.70;79.10;;;;;;5049157;28;20035;-79
2022/03/28 10:45:43;;;;;;;1.98;1.20;;;9.10;78.60;;;;;;5038085;28;20031;-79
2022/03/28 10:48:09;;;;;;;2.65;1.42;;;8.70;77.30;;;;;;5050345;28;20025;-79
2022/03/28 10:50:37;;;;;;;3.17;1.50;;;9.30;78.70;;;;;;5050680;28;20057;-79
2022/03/28 10:53:13;;;;;;;2.15;1.40;;;9.20;77.90;;;;;;5053017;28;20396;-79
2022/03/28 10:55:49;;;;;;;2.20;1.20;;;9.30;76.70;;;;;;5049598;28;20047;-79
2022/03/28 10:58:52;;;;;;;1.65;1.15;;;9.30;76.60;;;;;;5051226;28;20040;-80
2022/03/28 11:01:21;;;;;;;2.40;1.40;;;9.60;75.70;;;;;;4967550;28;20085;-80
2022/03/28 11:04:21;;;;;;;1.88;1.20;;;9.60;75.00;;;;;;5027692;28;20044;-80
2022/03/28 11:07:04;;;;;;;1.45;1.23;;;10.20;75.30;;;;;;5048995;28;20480;-80
2022/03/28 11:09:48;;;;;;;2.30;1.42;;;10.50;74.10;;;;;;5053672;28;20064;-80
2022/03/28 11:12:35;;;;;;;2.03;1.38;;;10.50;73.80;;;;;;5045538;28;20029;-80
2022/03/28 11:15:00;;;;;;;1.85;1.17;;;10.20;72.90;;;;;;5052746;28;20064;-80
2022/03/28 11:17:35;;;;;;;2.83;1.73;;;10.10;74.10;;;;;;5052833;28;20068;-80
2022/03/28 11:20:07;;;;;;;2.65;1.30;;;10.10;74.30;;;;;;5056592;28;20502;-79
2022/03/28 11:22:49;;;;;;;2.13;1.40;;;10.30;72.90;;;;;;5045518;28;20051;-80
2022/03/28 11:25:51;;;;;;;3.15;1.42;;;10.30;73.90;;;;;;5053504;28;20103;-80
2022/03/28 11:28:23;;;;;;;2.20;1.38;;;10.00;73.30;;;;;;5032516;28;20123;-80
2022/03/28 11:31:01;;;;;;;3.15;1.30;;;10.60;73.40;;;;;;5045100;28;20548;-79
2022/03/28 11:33:31;;;;;;;2.85;1.52;;;10.60;72.10;;;;;;5057944;28;20018;-79
2022/03/28 11:36:11;;;;;;;3.35;1.85;;;10.40;72.90;;;;;;5052836;28;20056;-79
2022/03/28 11:38:40;;;;;;;3.43;1.80;;;10.20;72.00;;;;;;5057489;28;20025;-80
2022/03/28 11:41:08;;;;;;;3.15;1.70;;;10.10;72.40;;;;;;5070274;28;20735;-79
2022/03/28 11:43:39;;;;;;;3.92;1.85;;;10.50;72.70;;;;;;5073344;28;20055;-80
2022/03/28 11:46:25;;;;;;;2.40;1.67;;;10.40;72.60;;;;;;5071532;28;20036;-80
2022/03/28 11:48:55;;;;;;;2.83;1.73;;;10.10;73.20;;;;;;5056920;28;20055;-80
2022/03/28 11:51:21;;;;;;;2.97;2.15;;;10.20;72.70;;;;;;5069128;28;20013;-80
2022/03/28 11:53:46;;;;;;;4.22;1.98;;;10.50;73.20;;;;;;5048065;28;20025;-80
2022/03/28 11:56:26;;;;;;;4.47;2.08;;;10.80;72.00;;;;;;5046355;28;20036;-80
2022/03/28 11:59:06;;;;;;;3.97;2.10;;;11.00;71.70;;;;;;5068293;28;20017;-80
2022/03/28 12:01:32;;;;;;;3.22;2.17;;;11.10;70.40;;;;;;5060852;28;20622;-80
2022/03/28 12:03:59;;;;;;;3.97;2.38;;;11.20;70.30;;;;;;5074149;28;20025;-80
2022/03/28 12:06:26;;;;;;;3.47;2.50;;;11.00;70.90;;;;;;5047710;28;20021;-80
2022/03/28 12:08:52;;;;;;;4.63;2.75;;;11.50;70.50;;;;;;5054652;28;20036;-80
2022/03/28 12:11:18;;;;;;;5.15;2.88;;;11.70;69.20;;;;;;5064731;28;20486;-80
2022/03/28 12:13:44;;;;;;;5.38;2.92;;;11.60;68.90;;;;;;5070698;28;20061;-80
2022/03/28 12:16:12;;;;;;;4.50;2.95;;;11.50;69.10;;;;;;5065997;28;20041;-79
2022/03/28 12:18:38;;;;;;;4.53;2.85;;;11.50;68.90;;;;;;5068817;28;20023;-79
2022/03/28 12:21:03;;;;;;;5.05;2.90;;;11.30;69.00;;;;;;5050147;28;20491;-79
2022/03/28 12:23:29;;;;;;;6.70;2.92;;;11.10;69.70;;;;;;5057991;28;20043;-80
2022/03/28 12:25:59;;;;;;;5.75;3.00;;;11.30;69.50;;;;;;5048984;28;20035;-79
2022/03/28 12:28:24;;;;;;;4.47;2.92;;;11.30;69.30;;;;;;5062179;28;20029;-80
2022/03/28 12:30:55;;;;;;;5.50;3.10;;;11.40;69.00;;;;;;5057044;28;20032;-80
2022/03/28 12:33:27;;;;;;;7.00;3.38;;;11.20;68.90;;;;;;5055389;28;20108;-79
2022/03/28 12:36:01;;;;;;;5.85;3.40;;;11.10;69.70;;;;;;5068516;28;20052;-80
2022/03/28 12:38:29;;;;;;;6.10;3.53;;;11.10;70.40;;;;;;5043777;28;20029;-79
2022/03/28 12:40:58;;;;;;;8.63;3.88;;;11.20;70.30;;;;;;5053278;28;20733;-80
2022/03/28 12:43:27;;;;;;;7.30;4.13;;;11.10;69.80;;;;;;5050131;28;20082;-79
2022/03/28 12:45:55;;;;;;;6.40;3.65;;;11.50;69.40;;;;;;5065975;28;20028;-80
2022/03/28 12:48:21;;;;;;;5.13;3.35;;;11.40;70.00;;;;;;5066937;28;20016;-80
2022/03/28 12:50:51;;;;;;;6.28;3.95;;;11.20;69.70;;;;;;5071849;28;20056;-79
2022/03/28 12:53:17;;;;;;;7.97;4.50;;;11.20;69.60;;;;;;5060732;28;20400;-79
2022/03/28 12:55:44;;;;;;;7.90;4.60;;;11.00;71.00;;;;;;5060435;28;20033;-79
2022/03/28 12:58:11;;;;;;;12.43;4.88;;;10.90;70.60;;;;;;5048981;28;20071;-80